Time;durP1;ratioP1;P1;durP2;ratioP2;P2;SDS_P1;SDS_P2;PMS_P1;PMS_P2;Temp;Humidity;BMP_temperature;BMP_pressure;BME280_temperature;BME280_humidity;BME280_pressure;Samples;Min_cycle;Max_cycle;Signal;HPM_P1;HPM_P2
2022/08/09 00:00:18;;;;;;;3.47;3.07;;;13.70;99.90;;;;;;5030580;28;20612;-43
2022/08/09 00:02:44;;;;;;;3.67;2.87;;;13.70;99.90;;;;;;5031607;28;20270;-43
2022/08/09 00:05:09;;;;;;;3.63;3.23;;;13.70;99.90;;;;;;5031193;28;20461;-43
2022/08/09 00:07:35;;;;;;;5.37;3.07;;;13.70;99.90;;;;;;5031343;28;20187;-43
2022/08/09 00:10:01;;;;;;;4.00;3.03;;;13.70;99.90;;;;;;5031306;28;20213;-43
2022/08/09 00:12:26;;;;;;;4.70;3.00;;;13.60;99.90;;;;;;5030178;28;20202;-43
2022/08/09 00:14:52;;;;;;;4.97;2.97;;;13.60;99.90;;;;;;5031447;28;20186;-43
2022/08/09 00:17:18;;;;;;;10.33;3.80;;;13.60;99.90;;;;;;5031629;28;20496;-43
2022/08/09 00:19:43;;;;;;;5.13;3.43;;;13.50;99.90;;;;;;5030542;28;20622;-44
2022/08/09 00:22:09;;;;;;;7.50;2.70;;;13.50;99.90;;;;;;5026732;28;20202;-43
2022/08/09 00:24:34;;;;;;;3.10;2.80;;;13.40;99.90;;;;;;5031502;28;20278;-43
2022/08/09 00:27:01;;;;;;;4.50;3.10;;;13.40;99.90;;;;;;5030361;28;20640;-43
2022/08/09 00:29:27;;;;;;;4.50;3.03;;;13.40;99.90;;;;;;5030707;28;20242;-44
2022/08/09 00:31:53;;;;;;;3.40;3.10;;;13.30;99.90;;;;;;5029717;28;20458;-44
2022/08/09 00:34:19;;;;;;;4.80;3.10;;;13.30;99.90;;;;;;5031022;28;20433;-43
2022/08/09 00:36:46;;;;;;;4.50;3.40;;;13.30;99.90;;;;;;5030854;28;20414;-43
2022/08/09 00:39:11;;;;;;;6.20;3.27;;;13.20;1.00;;;;;;5030749;28;20457;-43
2022/08/09 00:41:37;;;;;;;4.20;3.83;;;13.20;1.00;;;;;;5029935;28;20451;-43
2022/08/09 00:44:03;;;;;;;3.50;3.20;;;13.20;1.00;;;;;;5030857;28;20735;-43
2022/08/09 00:46:29;;;;;;;4.80;3.40;;;13.20;1.00;;;;;;5030488;28;20190;-43
2022/08/09 00:48:55;;;;;;;4.43;2.90;;;13.20;1.00;;;;;;5030050;28;20211;-43
2022/08/09 00:51:20;;;;;;;4.67;3.67;;;13.20;1.00;;;;;;5030028;28;20205;-43
2022/08/09 00:53:47;;;;;;;7.73;3.70;;;13.20;1.00;;;;;;5030782;28;20223;-43
2022/08/09 00:56:14;;;;;;;11.17;3.87;;;13.20;1.00;;;;;;5029805;28;20202;-43
2022/08/09 00:58:40;;;;;;;5.57;3.40;;;13.10;1.00;;;;;;5029745;28;21005;-51
2022/08/09 01:01:16;;;;;;;4.30;3.30;;;13.10;1.00;;;;;;5029920;28;20441;-50
2022/08/09 01:03:58;;;;;;;6.00;3.30;;;13.10;1.00;;;;;;5030761;28;20848;-52
2022/08/09 01:06:33;;;;;;;3.87;3.40;;;13.10;60.30;;;;;;5029969;28;20848;-51
2022/08/09 01:09:12;;;;;;;4.43;3.33;;;13.10;67.60;;;;;;5028830;28;20543;-51
2022/08/09 01:12:06;;;;;;;5.77;3.50;;;13.10;14.40;;;;;;5030685;28;20925;-50
2022/08/09 01:14:57;;;;;;;3.90;3.10;;;13.00;1.00;;;;;;5030750;28;20495;-51
2022/08/09 01:17:30;;;;;;;6.70;3.13;;;13.00;1.00;;;;;;5025942;28;20939;-43
2022/08/09 01:20:01;;;;;;;5.37;3.77;;;13.00;1.00;;;;;;5030374;28;20516;-44
2022/08/09 01:22:35;;;;;;;4.20;3.50;;;13.00;1.00;;;;;;5028678;28;20449;-43
2022/08/09 01:25:29;;;;;;;6.57;3.20;;;13.00;81.40;;;;;;5029006;28;20525;-43
2022/08/09 01:27:57;;;;;;;3.63;3.30;;;12.90;99.90;;;;;;5013212;28;20856;-44
2022/08/09 01:30:25;;;;;;;3.60;3.23;;;12.90;99.90;;;;;;5030520;28;21000;-43
2022/08/09 01:32:53;;;;;;;4.57;3.33;;;12.90;99.90;;;;;;5030296;28;20919;-43
2022/08/09 01:35:29;;;;;;;4.93;3.87;;;12.90;99.90;;;;;;5030374;28;20542;-43
2022/08/09 01:37:58;;;;;;;4.63;2.93;;;12.80;99.90;;;;;;5029684;28;20543;-43
2022/08/09 01:40:27;;;;;;;4.93;3.67;;;12.80;99.90;;;;;;5030284;28;20917;-43
2022/08/09 01:42:54;;;;;;;4.30;3.67;;;12.80;99.90;;;;;;5029633;28;20856;-43
2022/08/09 01:45:21;;;;;;;6.43;3.93;;;12.80;99.90;;;;;;5029853;28;20785;-43
2022/08/09 01:47:47;;;;;;;3.50;3.20;;;12.80;99.90;;;;;;5030024;28;20758;-44
2022/08/09 01:50:14;;;;;;;4.00;3.37;;;12.70;99.90;;;;;;5031213;28;20493;-43
2022/08/09 01:52:42;;;;;;;3.33;3.03;;;12.70;99.90;;;;;;5032932;28;20812;-43
2022/08/09 01:55:09;;;;;;;3.87;3.53;;;12.70;99.90;;;;;;5033193;28;20538;-43
2022/08/09 01:57:39;;;;;;;5.70;3.50;;;12.70;99.90;;;;;;5032563;28;20449;-43
2022/08/09 02:00:08;;;;;;;5.60;4.00;;;12.60;99.90;;;;;;5032119;28;20837;-43
2022/08/09 02:02:37;;;;;;;5.40;3.50;;;12.60;99.90;;;;;;5033054;28;20465;-44
2022/08/09 02:05:08;;;;;;;4.43;3.53;;;12.50;99.90;;;;;;5033286;28;20429;-43
2022/08/09 02:07:38;;;;;;;4.03;3.63;;;12.50;99.90;;;;;;5033232;28;20418;-43
2022/08/09 02:10:22;;;;;;;4.30;3.73;;;12.50;99.90;;;;;;5033542;28;20572;-43
2022/08/09 02:12:50;;;;;;;5.33;3.80;;;12.40;1.00;;;;;;5028895;28;20438;-43
2022/08/09 02:15:18;;;;;;;5.30;3.77;;;12.40;1.00;;;;;;5032815;28;20445;-43
2022/08/09 02:17:46;;;;;;;7.40;4.10;;;12.50;1.00;;;;;;5033630;28;20472;-43
2022/08/09 02:20:12;;;;;;;6.57;4.30;;;12.50;31.90;;;;;;5032933;28;20452;-43
2022/08/09 02:22:57;;;;;;;6.97;4.40;;;12.50;90.20;;;;;;5032314;28;20450;-43
2022/08/09 02:25:27;;;;;;;6.97;4.20;;;12.50;99.90;;;;;;5016532;28;20432;-42
2022/08/09 02:28:02;;;;;;;3.87;3.57;;;12.40;46.70;;;;;;5032732;28;20453;-42
2022/08/09 02:30:42;;;;;;;5.03;3.73;;;12.40;1.00;;;;;;5032783;28;20483;-43
2022/08/09 02:33:13;;;;;;;7.13;4.00;;;12.40;1.00;;;;;;5033393;28;20441;-43
2022/08/09 02:35:41;;;;;;;8.00;3.97;;;12.40;1.00;;;;;;5033406;28;21060;-43
2022/08/09 02:38:08;;;;;;;3.77;3.40;;;12.30;1.00;;;;;;5033761;28;20422;-43
2022/08/09 02:40:37;;;;;;;4.60;3.83;;;12.30;1.00;;;;;;5031669;28;20452;-42
2022/08/09 02:43:06;;;;;;;7.60;4.87;;;12.30;11.90;;;;;;5013574;28;20423;-43
2022/08/09 02:45:36;;;;;;;5.07;4.13;;;12.20;99.90;;;;;;5031113;28;20901;-42
2022/08/09 02:48:07;;;;;;;6.30;3.77;;;12.30;99.90;;;;;;5032397;28;20861;-43
2022/08/09 02:50:41;;;;;;;6.83;4.50;;;12.30;1.00;;;;;;5032891;28;20854;-42
2022/08/09 02:53:23;;;;;;;8.03;4.53;;;12.30;99.90;;;;;;5032094;28;20512;-43
2022/08/09 02:55:52;;;;;;;5.60;4.50;;;12.30;99.90;;;;;;5032353;28;20938;-42
2022/08/09 02:58:21;;;;;;;6.80;4.50;;;12.30;99.90;;;;;;5029941;28;20499;-42
2022/08/09 03:00:49;;;;;;;6.20;4.57;;;12.30;1.00;;;;;;5031155;28;20504;-42
2022/08/09 03:03:17;;;;;;;5.37;4.37;;;12.20;62.80;;;;;;5032331;28;20410;-42
2022/08/09 03:05:44;;;;;;;6.57;4.20;;;12.20;99.90;;;;;;5030934;28;20503;-42
2022/08/09 03:08:11;;;;;;;6.47;4.53;;;12.30;1.00;;;;;;5031862;28;20449;-43
2022/08/09 03:10:39;;;;;;;7.10;4.90;;;12.20;44.40;;;;;;5032584;28;20495;-42
2022/08/09 03:13:06;;;;;;;8.20;4.50;;;12.20;1.00;;;;;;5032663;28;20887;-42
2022/08/09 03:15:32;;;;;;;6.40;4.30;;;12.20;99.90;;;;;;5031537;28;20445;-42
2022/08/09 03:17:59;;;;;;;8.73;4.90;;;12.20;83.10;;;;;;5032837;28;20471;-42
2022/08/09 03:20:26;;;;;;;8.90;4.33;;;12.20;1.00;;;;;;5031514;28;20893;-51
2022/08/09 03:22:53;;;;;;;7.07;5.40;;;12.20;1.00;;;;;;5032597;28;20463;-52
2022/08/09 03:25:19;;;;;;;4.90;4.30;;;12.20;1.00;;;;;;5032364;28;20462;-52
2022/08/09 03:27:50;;;;;;;9.50;4.80;;;12.20;1.00;;;;;;5043346;28;20494;-52
2022/08/09 03:30:17;;;;;;;8.93;4.70;;;12.20;1.00;;;;;;5031853;28;20219;-52
2022/08/09 03:32:43;;;;;;;7.20;4.80;;;12.20;99.90;;;;;;5031864;28;20449;-53
2022/08/09 03:35:10;;;;;;;9.10;5.40;;;12.10;99.90;;;;;;5031509;28;20442;-52
2022/08/09 03:37:37;;;;;;;8.70;5.37;;;12.10;99.90;;;;;;5032610;28;20426;-52
2022/08/09 03:40:03;;;;;;;10.03;5.27;;;12.10;1.00;;;;;;5032107;28;20564;-52
2022/08/09 03:42:28;;;;;;;6.67;4.77;;;12.10;1.00;;;;;;5032390;28;20831;-50
2022/08/09 03:44:54;;;;;;;9.20;4.83;;;12.10;99.90;;;;;;5031053;28;20441;-53
2022/08/09 03:47:20;;;;;;;7.40;4.53;;;12.10;1.00;;;;;;5030895;28;20318;-53
2022/08/09 03:49:47;;;;;;;5.90;4.80;;;12.00;1.00;;;;;;5031884;28;20218;-53
2022/08/09 03:52:15;;;;;;;7.80;5.07;;;12.00;1.00;;;;;;5031146;28;20183;-52
2022/08/09 03:54:43;;;;;;;8.93;4.37;;;12.00;99.90;;;;;;5030862;28;20482;-52
2022/08/09 03:57:11;;;;;;;7.67;5.10;;;12.00;99.90;;;;;;5029933;28;20450;-52
2022/08/09 03:59:37;;;;;;;8.87;5.00;;;12.00;99.90;;;;;;5031671;28;20440;-53
2022/08/09 04:02:04;;;;;;;6.10;4.70;;;11.90;1.00;;;;;;5029264;28;20449;-53
2022/08/09 04:04:31;;;;;;;11.73;5.30;;;12.00;1.00;;;;;;5030618;28;20451;-53
2022/08/09 04:06:57;;;;;;;8.93;5.40;;;12.00;1.00;;;;;;5031863;28;20430;-53
2022/08/09 04:09:24;;;;;;;9.43;5.63;;;12.00;1.00;;;;;;5031257;28;20473;-53
2022/08/09 04:11:49;;;;;;;7.33;5.70;;;12.00;1.00;;;;;;5030884;28;20196;-54
2022/08/09 04:14:21;;;;;;;6.87;4.80;;;12.00;1.00;;;;;;5030419;28;20985;-53
2022/08/09 04:16:46;;;;;;;7.10;5.10;;;12.00;1.00;;;;;;5017996;28;20187;-54
2022/08/09 04:19:12;;;;;;;7.53;5.70;;;12.00;1.00;;;;;;5031728;28;20417;-53
2022/08/09 04:21:39;;;;;;;12.43;6.30;;;12.00;1.00;;;;;;5031447;28;20194;-54
2022/08/09 04:24:05;;;;;;;6.93;5.83;;;12.00;1.00;;;;;;5012340;28;20218;-53
2022/08/09 04:26:31;;;;;;;7.10;6.03;;;12.10;1.20;;;;;;5029848;28;20951;-53
2022/08/09 04:28:56;;;;;;;8.13;6.20;;;12.10;7.80;;;;;;5030549;28;20456;-54
2022/08/09 04:31:22;;;;;;;8.87;5.73;;;12.10;13.90;;;;;;5029207;28;20272;-54
2022/08/09 04:33:48;;;;;;;10.00;6.87;;;12.10;18.60;;;;;;5031342;28;20230;-54
2022/08/09 04:36:13;;;;;;;8.70;6.37;;;12.10;27.00;;;;;;5031426;28;20229;-54
2022/08/09 04:38:39;;;;;;;12.90;6.57;;;12.20;38.70;;;;;;5031465;28;20609;-53
2022/08/09 04:41:04;;;;;;;11.17;7.27;;;12.20;43.70;;;;;;5030519;28;20202;-54
2022/08/09 04:43:30;;;;;;;17.53;7.40;;;12.20;45.60;;;;;;5030444;28;20191;-54
2022/08/09 04:45:56;;;;;;;10.87;7.27;;;12.30;44.40;;;;;;5030334;28;20649;-54
2022/08/09 04:48:21;;;;;;;11.63;7.00;;;12.40;52.00;;;;;;5029660;28;20210;-54
2022/08/09 04:50:47;;;;;;;12.13;7.40;;;12.40;48.80;;;;;;5027333;28;20294;-54
2022/08/09 04:53:12;;;;;;;14.90;8.30;;;12.50;54.20;;;;;;5026344;28;20238;-54
2022/08/09 04:55:38;;;;;;;13.47;8.20;;;12.50;57.60;;;;;;5030183;28;20199;-53
2022/08/09 04:58:05;;;;;;;17.90;7.93;;;12.60;56.20;;;;;;5030380;28;20252;-54
2022/08/09 05:00:33;;;;;;;11.33;7.30;;;12.70;63.10;;;;;;5030370;28;20190;-54
2022/08/09 05:03:01;;;;;;;9.83;7.60;;;12.80;65.00;;;;;;5029809;28;20448;-53
2022/08/09 05:05:26;;;;;;;15.77;8.20;;;12.90;56.30;;;;;;5030321;28;20533;-53
2022/08/09 05:07:52;;;;;;;13.30;9.10;;;13.10;49.90;;;;;;5012661;28;20901;-54
2022/08/09 05:10:18;;;;;;;13.63;9.53;;;13.10;48.90;;;;;;5029295;28;20207;-51
2022/08/09 05:12:43;;;;;;;18.03;8.50;;;13.30;42.90;;;;;;5028491;28;20208;-51
2022/08/09 05:15:09;;;;;;;19.90;9.17;;;13.30;26.60;;;;;;5030801;28;20677;-50
2022/08/09 05:17:35;;;;;;;15.40;8.03;;;13.40;19.40;;;;;;5030796;28;20265;-51
2022/08/09 05:20:01;;;;;;;13.10;8.20;;;13.40;9.10;;;;;;5030325;28;20191;-50
2022/08/09 05:22:27;;;;;;;15.50;8.50;;;13.50;7.80;;;;;;5030622;28;20175;-50
2022/08/09 05:24:52;;;;;;;12.53;9.13;;;13.50;5.20;;;;;;5030123;28;20270;-50
2022/08/09 05:27:18;;;;;;;13.57;8.47;;;13.60;1.00;;;;;;5033720;28;20198;-50
2022/08/09 05:29:44;;;;;;;14.70;9.10;;;13.70;1.00;;;;;;5034059;28;20214;-51
2022/08/09 05:32:09;;;;;;;10.30;7.37;;;13.80;1.00;;;;;;5033548;28;20202;-51
2022/08/09 05:34:35;;;;;;;13.23;8.10;;;13.80;1.00;;;;;;5033067;28;20202;-50
2022/08/09 05:37:03;;;;;;;16.03;8.50;;;13.90;1.00;;;;;;5034189;28;20195;-52
2022/08/09 05:39:28;;;;;;;12.90;8.13;;;14.00;1.00;;;;;;5033199;28;20220;-52
2022/08/09 05:41:54;;;;;;;10.43;7.90;;;14.20;1.00;;;;;;5034526;28;20418;-51
2022/08/09 05:44:20;;;;;;;8.73;7.27;;;14.40;1.00;;;;;;5034548;28;20629;-43
2022/08/09 05:46:45;;;;;;;7.73;6.43;;;14.60;1.00;;;;;;5034691;28;20711;-50
2022/08/09 05:49:11;;;;;;;11.53;6.90;;;14.90;1.00;;;;;;5034445;28;20210;-51
2022/08/09 05:51:36;;;;;;;7.57;6.70;;;15.20;1.00;;;;;;5031972;28;20186;-50
2022/08/09 05:54:02;;;;;;;9.17;7.13;;;15.40;1.00;;;;;;5032670;28;20245;-51
2022/08/09 05:56:28;;;;;;;9.30;7.20;;;15.70;99.90;;;;;;5034036;28;20191;-51
2022/08/09 05:58:58;;;;;;;10.13;6.23;;;15.90;99.90;;;;;;5033447;28;20612;-43
2022/08/09 06:01:24;;;;;;;9.20;6.30;;;16.10;1.00;;;;;;5026201;28;20195;-44
2022/08/09 06:03:50;;;;;;;7.80;5.63;;;16.30;99.90;;;;;;5032011;28;20526;-43
2022/08/09 06:06:16;;;;;;;10.83;5.67;;;16.60;99.90;;;;;;5033870;28;20892;-43
2022/08/09 06:08:42;;;;;;;7.80;5.73;;;16.70;99.90;;;;;;5014863;28;20449;-44
2022/08/09 06:11:08;;;;;;;7.90;5.37;;;16.90;99.90;;;;;;5030943;28;20484;-43
2022/08/09 06:13:34;;;;;;;5.50;4.60;;;17.10;42.60;;;;;;5029719;28;20190;-50
2022/08/09 06:16:01;;;;;;;8.33;5.53;;;17.30;99.90;;;;;;5033810;28;20179;-50
2022/08/09 06:18:26;;;;;;;7.03;5.17;;;17.50;1.00;;;;;;5032840;28;20597;-50
2022/08/09 06:20:54;;;;;;;12.87;5.57;;;17.70;1.00;;;;;;5033624;28;20461;-50
2022/08/09 06:23:19;;;;;;;7.80;5.30;;;17.80;1.00;;;;;;5025533;28;20194;-49
2022/08/09 06:25:45;;;;;;;5.57;4.30;;;18.00;1.00;;;;;;5033410;28;20437;-49
2022/08/09 06:28:10;;;;;;;9.97;5.50;;;18.10;1.00;;;;;;5033334;28;20268;-50
2022/08/09 06:30:36;;;;;;;7.10;4.80;;;18.30;1.00;;;;;;5031365;28;20238;-50
2022/08/09 06:33:02;;;;;;;5.80;4.20;;;18.50;1.00;;;;;;5033747;28;20206;-50
2022/08/09 06:35:28;;;;;;;6.30;4.10;;;18.70;1.00;;;;;;5033076;28;20645;-50
2022/08/09 06:37:53;;;;;;;5.97;4.13;;;19.00;1.00;;;;;;5032696;28;20194;-50
2022/08/09 06:40:19;;;;;;;7.53;3.93;;;19.20;1.00;;;;;;5031962;28;20194;-50
2022/08/09 06:42:45;;;;;;;5.47;4.57;;;19.40;1.00;;;;;;5032015;28;20198;-50
2022/08/09 06:45:11;;;;;;;6.83;4.00;;;19.50;1.00;;;;;;5032870;28;20199;-50
2022/08/09 06:47:37;;;;;;;5.63;4.57;;;19.70;1.00;;;;;;5033324;28;20625;-50
2022/08/09 06:50:04;;;;;;;4.57;4.17;;;19.90;1.00;;;;;;5033261;28;20616;-50
2022/08/09 06:52:29;;;;;;;7.47;3.90;;;20.10;1.00;;;;;;5033032;28;20191;-50
2022/08/09 06:54:55;;;;;;;9.23;3.90;;;20.30;1.00;;;;;;5032807;28;20433;-50
2022/08/09 06:57:21;;;;;;;6.07;4.10;;;20.40;1.00;;;;;;5033275;28;20181;-50
2022/08/09 06:59:47;;;;;;;7.57;4.23;;;20.60;1.00;;;;;;5032689;28;20568;-50
2022/08/09 07:02:12;;;;;;;5.63;3.53;;;20.60;1.00;;;;;;5030082;28;20198;-50
2022/08/09 07:04:38;;;;;;;5.60;3.47;;;20.80;99.90;;;;;;5031616;28;20272;-50
2022/08/09 07:07:04;;;;;;;4.90;3.60;;;20.90;1.00;;;;;;5031766;28;20195;-50
2022/08/09 07:09:29;;;;;;;8.00;3.90;;;21.10;1.00;;;;;;5032868;28;20712;-50
2022/08/09 07:11:55;;;;;;;6.53;4.03;;;21.40;99.90;;;;;;5045690;28;20194;-50
2022/08/09 07:14:21;;;;;;;6.30;4.67;;;21.40;99.90;;;;;;5052728;28;20182;-50
2022/08/09 07:16:46;;;;;;;4.50;3.30;;;21.60;99.90;;;;;;5052764;28;20178;-50
2022/08/09 07:19:13;;;;;;;5.80;3.77;;;21.70;99.90;;;;;;5052844;28;20193;-49
2022/08/09 07:21:41;;;;;;;3.70;3.37;;;21.80;99.90;;;;;;5052616;28;20174;-50
2022/08/09 07:24:07;;;;;;;3.83;3.00;;;21.90;99.90;;;;;;5042246;28;20450;-50
2022/08/09 07:26:33;;;;;;;4.40;3.40;;;22.00;99.90;;;;;;5032266;28;20572;-50
2022/08/09 07:28:58;;;;;;;4.30;3.17;;;22.10;99.90;;;;;;5048740;28;20194;-49
2022/08/09 07:31:24;;;;;;;7.33;3.00;;;22.30;99.90;;;;;;5037102;28;20495;-50
2022/08/09 07:33:50;;;;;;;4.67;2.97;;;22.50;99.90;;;;;;5045929;28;20191;-49
2022/08/09 07:36:16;;;;;;;7.93;2.97;;;22.80;99.90;;;;;;5032318;28;20541;-48
2022/08/09 07:38:41;;;;;;;3.83;3.10;;;23.10;99.90;;;;;;5032427;28;20187;-49
2022/08/09 07:41:07;;;;;;;3.40;3.10;;;23.40;99.90;;;;;;5031982;28;20652;-50
2022/08/09 07:43:33;;;;;;;5.73;3.33;;;23.40;99.90;;;;;;5031868;28;20198;-49
2022/08/09 07:45:59;;;;;;;4.00;2.80;;;23.60;99.90;;;;;;5032139;28;20436;-47
2022/08/09 07:48:25;;;;;;;3.50;3.17;;;24.00;99.90;;;;;;5033281;28;20433;-47
2022/08/09 07:50:51;;;;;;;7.93;2.67;;;24.10;99.90;;;;;;5020641;28;20220;-49
2022/08/09 07:53:16;;;;;;;3.70;2.60;;;24.40;99.90;;;;;;5031270;28;20269;-48
2022/08/09 07:55:43;;;;;;;4.93;2.57;;;24.60;99.90;;;;;;5030877;28;20202;-53
2022/08/09 07:58:09;;;;;;;2.83;2.53;;;24.70;99.90;;;;;;5031860;28;20175;-48
2022/08/09 08:00:34;;;;;;;5.17;2.83;;;24.70;99.90;;;;;;5035757;28;20775;-48
2022/08/09 08:03:01;;;;;;;10.23;3.07;;;24.80;99.90;;;;;;5051739;28;20185;-48
2022/08/09 08:05:27;;;;;;;3.40;2.53;;;24.70;99.90;;;;;;5051695;28;20224;-49
2022/08/09 08:07:53;;;;;;;2.90;2.53;;;24.60;99.90;;;;;;5051724;28;20416;-48
2022/08/09 08:10:20;;;;;;;4.63;2.50;;;24.80;99.90;;;;;;5038957;28;20508;-49
2022/08/09 08:12:46;;;;;;;7.40;3.23;;;25.10;99.90;;;;;;5028365;28;20453;-49
2022/08/09 08:15:21;;;;;;;2.73;2.53;;;25.30;99.90;;;;;;5039334;28;20943;-53
2022/08/09 08:17:50;;;;;;;4.87;2.70;;;25.40;99.90;;;;;;5048748;28;20185;-50
2022/08/09 08:20:20;;;;;;;3.13;2.50;;;25.60;99.90;;;;;;5043323;28;20441;-49
2022/08/09 08:22:46;;;;;;;4.27;2.33;;;25.80;99.90;;;;;;5031569;28;20532;-48
2022/08/09 08:25:13;;;;;;;3.80;2.10;;;26.10;99.90;;;;;;5031362;28;20406;-47
2022/08/09 08:27:40;;;;;;;3.03;2.43;;;26.30;99.90;;;;;;5028543;28;20818;-47
2022/08/09 08:30:06;;;;;;;2.90;2.03;;;26.20;99.90;;;;;;5041743;28;20543;-47
2022/08/09 08:32:32;;;;;;;5.30;2.20;;;26.30;99.90;;;;;;5047849;28;21015;-46
2022/08/09 08:34:58;;;;;;;2.37;2.03;;;26.20;99.90;;;;;;5028610;28;20441;-47
2022/08/09 08:37:24;;;;;;;3.43;2.10;;;26.30;99.90;;;;;;5030634;28;20198;-49
2022/08/09 08:39:49;;;;;;;4.90;2.20;;;26.50;99.90;;;;;;5030894;28;20429;-49
2022/08/09 08:42:15;;;;;;;1.97;1.80;;;26.60;99.90;;;;;;5030478;28;20225;-49
2022/08/09 08:44:42;;;;;;;3.00;2.20;;;27.00;99.90;;;;;;5030920;28;20219;-48
2022/08/09 08:47:09;;;;;;;2.50;1.40;;;27.30;99.90;;;;;;5030353;28;20174;-49
2022/08/09 08:49:39;;;;;;;1.43;1.33;;;26.60;99.90;;;;;;5031076;28;20457;-49
2022/08/09 08:52:07;;;;;;;3.37;1.90;;;25.60;99.90;;;;;;5029910;28;20906;-49
2022/08/09 08:54:33;;;;;;;6.20;1.83;;;24.90;99.90;;;;;;5030637;28;20474;-49
2022/08/09 08:57:01;;;;;;;2.13;1.80;;;25.30;99.90;;;;;;5031008;28;20485;-44
2022/08/09 08:59:27;;;;;;;6.80;1.90;;;25.70;99.90;;;;;;5029947;28;20418;-44
2022/08/09 09:01:53;;;;;;;2.30;1.80;;;25.40;99.90;;;;;;5030344;28;20460;-44
2022/08/09 09:04:21;;;;;;;2.97;1.67;;;24.90;99.90;;;;;;5030695;28;20590;-44
2022/08/09 09:06:50;;;;;;;6.03;1.83;;;24.90;99.90;;;;;;5030179;28;20449;-44
2022/08/09 09:09:18;;;;;;;2.17;1.70;;;25.60;99.90;;;;;;5029987;28;20507;-43
2022/08/09 09:11:44;;;;;;;1.87;1.50;;;26.30;99.90;;;;;;5029257;28;20448;-43
2022/08/09 09:14:16;;;;;;;4.20;1.70;;;26.90;99.90;;;;;;5030733;28;20425;-44
2022/08/09 09:16:42;;;;;;;1.90;1.80;;;26.90;99.90;;;;;;5029353;28;20444;-44
2022/08/09 09:19:09;;;;;;;4.40;1.87;;;26.60;99.90;;;;;;5030708;28;20852;-43
2022/08/09 09:21:36;;;;;;;3.60;2.00;;;26.50;99.90;;;;;;5030559;28;20182;-43
2022/08/09 09:24:03;;;;;;;3.90;1.80;;;26.10;99.90;;;;;;5030463;28;20926;-44
2022/08/09 09:26:29;;;;;;;4.40;1.73;;;25.90;99.90;;;;;;5029900;28;20862;-44
2022/08/09 09:28:55;;;;;;;2.53;1.70;;;25.60;99.90;;;;;;5030573;28;20513;-43
2022/08/09 09:31:23;;;;;;;2.67;1.67;;;25.60;99.90;;;;;;5012711;28;20191;-43
2022/08/09 09:33:49;;;;;;;1.47;1.37;;;26.20;99.90;;;;;;5030424;28;20197;-43
2022/08/09 09:36:15;;;;;;;3.43;1.40;;;26.90;99.90;;;;;;5030658;28;20406;-43
2022/08/09 09:38:58;;;;;;;3.13;2.10;;;27.20;99.90;;;;;;5028925;28;20563;-44
2022/08/09 09:41:29;;;;;;;4.40;2.20;;;27.30;99.90;;;;;;5010716;28;20410;-45
2022/08/09 09:43:56;;;;;;;1.70;1.60;;;27.20;99.90;;;;;;5018059;28;20460;-44
2022/08/09 09:46:36;;;;;;;1.50;1.40;;;27.30;99.90;;;;;;5030585;28;20937;-45
2022/08/09 09:49:08;;;;;;;3.97;1.47;;;27.60;99.90;;;;;;5030555;28;20803;-45
2022/08/09 09:51:36;;;;;;;3.30;1.87;;;27.90;99.90;;;;;;5029079;28;20855;-44
2022/08/09 09:54:13;;;;;;;1.80;1.60;;;27.90;99.90;;;;;;5029945;28;20825;-44
2022/08/09 09:56:44;;;;;;;3.57;1.57;;;27.90;99.90;;;;;;5029945;28;20476;-43
2022/08/09 09:59:11;;;;;;;2.50;1.57;;;28.30;99.90;;;;;;5032044;28;20401;-43
2022/08/09 10:01:38;;;;;;;3.53;1.70;;;28.40;99.90;;;;;;5032119;28;20402;-43
2022/08/09 10:04:11;;;;;;;3.07;1.80;;;28.40;99.90;;;;;;5030994;28;20533;-44
2022/08/09 10:06:39;;;;;;;3.87;1.80;;;28.50;99.90;;;;;;5032048;28;20398;-44
2022/08/09 10:09:05;;;;;;;5.50;1.80;;;28.50;99.90;;;;;;5031699;28;20402;-44
2022/08/09 10:11:32;;;;;;;6.93;1.83;;;28.40;99.90;;;;;;5033466;28;20413;-48
2022/08/09 10:13:58;;;;;;;1.60;1.50;;;28.30;99.90;;;;;;5035083;28;20518;-49
2022/08/09 10:16:37;;;;;;;2.57;1.67;;;28.30;99.90;;;;;;5035451;28;20398;-48
2022/08/09 10:19:08;;;;;;;2.43;1.70;;;28.00;99.90;;;;;;5035411;28;20911;-48
2022/08/09 10:21:43;;;;;;;2.60;1.90;;;27.10;99.90;;;;;;5034755;28;20903;-50
2022/08/09 10:24:10;;;;;;;2.77;2.20;;;26.80;99.90;;;;;;5015563;28;20406;-49
2022/08/09 10:26:36;;;;;;;2.20;2.00;;;26.90;99.90;;;;;;5027023;28;20453;-50
2022/08/09 10:29:03;;;;;;;3.80;2.10;;;27.40;99.90;;;;;;5035095;28;20417;-57
2022/08/09 10:31:29;;;;;;;4.60;1.80;;;27.90;99.90;;;;;;5034171;28;20989;-50
2022/08/09 10:33:55;;;;;;;1.80;1.70;;;28.00;99.90;;;;;;5034990;28;20413;-50
2022/08/09 10:36:21;;;;;;;3.43;1.97;;;27.70;99.90;;;;;;5008349;28;20192;-50
2022/08/09 10:38:46;;;;;;;1.60;1.50;;;27.20;99.90;;;;;;5015141;28;20182;-48
2022/08/09 10:41:14;;;;;;;2.63;1.73;;;26.60;99.90;;;;;;5028451;28;20457;-49
2022/08/09 10:43:48;;;;;;;2.27;1.90;;;26.30;99.90;;;;;;5033291;28;20191;-50
2022/08/09 10:46:34;;;;;;;1.70;1.50;;;26.20;99.90;;;;;;5043956;28;20820;-49
2022/08/09 10:49:13;;;;;;;4.27;1.80;;;26.30;99.90;;;;;;5044315;28;20441;-48
2022/08/09 10:51:48;;;;;;;2.53;1.80;;;26.90;99.90;;;;;;5031492;28;21183;-48
2022/08/09 10:54:14;;;;;;;3.43;1.67;;;27.50;99.90;;;;;;5018771;28;20920;-49
2022/08/09 10:56:42;;;;;;;2.90;1.70;;;28.00;99.90;;;;;;5023014;28;20424;-48
2022/08/09 10:59:27;;;;;;;8.20;1.87;;;28.40;99.90;;;;;;5031873;28;20487;-48
2022/08/09 11:01:53;;;;;;;2.30;1.70;;;28.50;99.90;;;;;;5031703;28;20778;-48
2022/08/09 11:04:24;;;;;;;3.20;1.90;;;28.30;99.90;;;;;;5032128;28;20398;-48
2022/08/09 11:07:09;;;;;;;2.33;1.83;;;28.00;99.90;;;;;;5031530;28;21249;-48
2022/08/09 11:09:38;;;;;;;1.40;1.30;;;27.90;99.90;;;;;;5032014;28;20536;-48
2022/08/09 11:12:18;;;;;;;5.50;1.77;;;27.80;99.90;;;;;;5032122;28;20829;-48
2022/08/09 11:14:53;;;;;;;1.80;1.70;;;27.70;99.90;;;;;;5031978;28;20422;-48
2022/08/09 11:17:21;;;;;;;2.07;1.67;;;27.60;99.90;;;;;;5030595;28;20531;-48
2022/08/09 11:19:57;;;;;;;3.80;1.90;;;27.60;99.90;;;;;;5032105;28;20479;-48
2022/08/09 11:22:42;;;;;;;3.90;1.80;;;27.30;99.90;;;;;;5028985;28;20444;-48
2022/08/09 11:25:13;;;;;;;3.63;1.70;;;27.50;99.90;;;;;;5029678;28;20424;-47
2022/08/09 11:27:45;;;;;;;6.40;1.60;;;28.20;99.90;;;;;;5041925;28;20451;-49
2022/08/09 11:30:12;;;;;;;2.70;1.60;;;28.70;99.90;;;;;;5045201;28;20515;-47
2022/08/09 11:32:49;;;;;;;1.93;1.60;;;29.10;99.90;;;;;;5030943;28;20448;-48
2022/08/09 11:35:26;;;;;;;4.77;1.77;;;29.50;99.90;;;;;;5031127;28;20436;-49
2022/08/09 11:37:55;;;;;;;5.20;1.60;;;30.00;99.90;;;;;;5043066;28;20567;-48
2022/08/09 11:40:23;;;;;;;4.10;1.53;;;30.50;99.90;;;;;;5031342;28;20441;-47
2022/08/09 11:42:53;;;;;;;2.53;1.60;;;30.70;99.90;;;;;;5031918;28;20398;-47
2022/08/09 11:45:22;;;;;;;2.37;1.60;;;30.90;99.90;;;;;;5035357;28;20439;-58
2022/08/09 11:47:49;;;;;;;2.50;1.60;;;30.90;99.90;;;;;;5052178;28;20413;-49
2022/08/09 11:50:15;;;;;;;2.00;1.33;;;31.40;99.90;;;;;;5031448;28;20952;-48
2022/08/09 11:52:59;;;;;;;7.30;1.70;;;31.40;99.90;;;;;;5032365;28;20544;-48
2022/08/09 11:55:32;;;;;;;2.80;1.63;;;31.60;99.90;;;;;;5030671;28;20195;-48
2022/08/09 11:58:02;;;;;;;2.13;1.57;;;31.40;99.90;;;;;;5020226;28;20430;-53
2022/08/09 12:00:30;;;;;;;3.67;1.50;;;30.70;99.90;;;;;;5031667;28;20428;-48
2022/08/09 12:02:58;;;;;;;2.53;1.40;;;29.70;99.90;;;;;;5031332;28;20421;-48
2022/08/09 12:05:34;;;;;;;7.60;1.90;;;28.70;99.90;;;;;;5032150;28;20521;-48
2022/08/09 12:08:05;;;;;;;2.00;1.40;;;27.90;99.90;;;;;;5031852;28;20448;-48
2022/08/09 12:10:31;;;;;;;4.40;1.90;;;27.40;99.90;;;;;;5031762;28;20450;-48
2022/08/09 12:12:57;;;;;;;3.17;1.70;;;26.90;99.90;;;;;;5031465;28;20970;-48
2022/08/09 12:15:25;;;;;;;2.50;1.50;;;26.50;99.90;;;;;;5031600;28;20184;-48
2022/08/09 12:17:53;;;;;;;3.00;1.67;;;26.20;99.90;;;;;;5032366;28;20183;-47
2022/08/09 12:20:23;;;;;;;3.37;1.87;;;26.30;99.90;;;;;;5031474;28;20405;-48
2022/08/09 12:22:55;;;;;;;2.33;1.60;;;27.50;99.90;;;;;;5031071;28;20436;-43
2022/08/09 12:25:21;;;;;;;2.43;1.53;;;29.00;99.90;;;;;;5030963;28;20425;-44
2022/08/09 12:27:47;;;;;;;1.63;1.53;;;30.20;99.90;;;;;;5031412;28;20961;-44
2022/08/09 12:30:13;;;;;;;4.00;1.43;;;31.00;99.90;;;;;;5030345;28;20692;-44
2022/08/09 12:32:39;;;;;;;1.60;1.50;;;31.70;99.90;;;;;;5031530;28;20163;-41
2022/08/09 12:35:06;;;;;;;4.80;1.27;;;32.00;99.90;;;;;;5031007;28;20468;-41
2022/08/09 12:37:37;;;;;;;1.67;1.30;;;32.00;99.90;;;;;;5027899;28;20450;-42
2022/08/09 12:40:06;;;;;;;2.30;1.30;;;32.10;99.90;;;;;;5032720;28;20418;-41
2022/08/09 12:42:33;;;;;;;3.03;1.47;;;32.10;99.90;;;;;;5026941;28;20947;-42
2022/08/09 12:44:59;;;;;;;1.70;1.60;;;31.60;99.90;;;;;;5032899;28;20838;-42
2022/08/09 12:47:25;;;;;;;1.77;1.50;;;31.70;99.90;;;;;;5028837;28;20537;-42
2022/08/09 12:52:40;;;;;;;2.17;1.50;;;32.20;99.90;;;;;;5030478;28;20248;-42
2022/08/09 12:55:08;;;;;;;2.37;1.50;;;32.80;99.90;;;;;;5030124;28;20450;-43